createdAt,value
2023-06-28T00:01:38.038Z,18.25
2023-06-28T00:04:17.412Z,18.18
2023-06-28T00:06:47.773Z,18.17
2023-06-28T00:09:17.099Z,18.15
2023-06-28T00:11:46.837Z,18.13
2023-06-28T00:14:15.224Z,18.20
2023-06-28T00:16:47.315Z,18.14
2023-06-28T00:19:29.098Z,18.14
2023-06-28T00:22:00.611Z,18.13
2023-06-28T00:24:30.781Z,18.12
2023-06-28T00:26:59.056Z,18.11
2023-06-28T00:29:28.674Z,18.11
2023-06-28T00:31:57.177Z,18.13
2023-06-28T00:34:25.385Z,18.13
2023-06-28T00:36:54.170Z,18.22
2023-06-28T00:39:23.847Z,18.21
2023-06-28T00:41:52.151Z,18.15
2023-06-28T00:44:20.434Z,18.15
2023-06-28T00:46:50.362Z,18.11
2023-06-28T00:49:19.138Z,18.11
2023-06-28T00:51:48.607Z,18.14
2023-06-28T00:54:17.399Z,18.16
2023-06-28T00:56:49.361Z,18.18
2023-06-28T00:59:18.108Z,18.17
2023-06-28T01:01:50.655Z,18.21
2023-06-28T01:04:19.496Z,18.17
2023-06-28T01:06:53.269Z,18.19
2023-06-28T01:09:22.930Z,18.19
2023-06-28T01:11:55.578Z,18.19
2023-06-28T01:14:25.514Z,18.20
2023-06-28T01:16:56.655Z,18.12
2023-06-28T01:19:26.290Z,18.17
2023-06-28T01:21:58.583Z,18.19
2023-06-28T01:24:28.885Z,18.21
2023-06-28T01:26:59.882Z,18.20
2023-06-28T01:29:28.401Z,18.25
2023-06-28T01:31:57.582Z,18.30
2023-06-28T01:34:27.949Z,18.31
2023-06-28T01:36:59.251Z,18.34
2023-06-28T01:39:30.817Z,18.34
2023-06-28T01:42:01.935Z,18.27
2023-06-28T01:44:31.636Z,18.27
2023-06-28T01:47:00.278Z,18.26
2023-06-28T01:49:29.203Z,18.26
2023-06-28T01:51:57.892Z,18.24
2023-06-28T01:54:26.219Z,18.24
2023-06-28T01:56:55.928Z,18.28
2023-06-28T01:59:24.317Z,18.24
2023-06-28T02:04:55.159Z,18.19
2023-06-28T02:07:23.572Z,18.22
2023-06-28T02:09:51.876Z,18.22
2023-06-28T02:12:21.526Z,18.24
2023-06-28T02:14:52.925Z,18.19
2023-06-28T02:17:22.021Z,18.23
2023-06-28T02:19:50.518Z,18.21
2023-06-28T02:22:20.281Z,18.15
2023-06-28T02:24:48.902Z,18.11
2023-06-28T02:27:17.363Z,18.12
2023-06-28T02:29:46.938Z,18.11
2023-06-28T02:32:15.147Z,18.10
2023-06-28T02:34:43.394Z,18.11
2023-06-28T02:37:11.679Z,18.14
2023-06-28T02:39:39.878Z,18.12
2023-06-28T02:42:08.953Z,18.06
2023-06-28T02:44:37.486Z,18.07
2023-06-28T02:47:07.803Z,18.05
2023-06-28T02:49:36.127Z,18.07
2023-06-28T02:52:04.650Z,18.16
2023-06-28T02:54:32.786Z,18.15
2023-06-28T02:57:01.092Z,18.24
2023-06-28T02:59:29.246Z,18.22
2023-06-28T03:01:57.508Z,18.27
2023-06-28T03:04:28.955Z,18.25
2023-06-28T03:06:57.729Z,18.22
2023-06-28T03:09:26.139Z,18.19
2023-06-28T03:11:54.278Z,18.26
2023-06-28T03:14:22.428Z,18.22
2023-06-28T03:16:50.715Z,18.12
2023-06-28T03:19:18.910Z,18.03
2023-06-28T03:21:48.449Z,17.96
2023-06-28T03:24:16.588Z,17.95
2023-06-28T03:26:44.889Z,17.95
2023-06-28T03:29:13.048Z,17.89
2023-06-28T03:31:41.322Z,17.80
2023-06-28T03:34:09.562Z,17.73
2023-06-28T03:36:42.642Z,17.86
2023-06-28T03:39:18.788Z,17.78
2023-06-28T03:41:46.954Z,17.74
2023-06-28T03:44:15.619Z,17.64
2023-06-28T03:46:43.862Z,17.63
2023-06-28T03:49:12.117Z,17.62
2023-06-28T03:51:40.435Z,17.56
2023-06-28T03:54:08.711Z,17.60
2023-06-28T03:56:38.260Z,17.61
2023-06-28T03:59:06.381Z,17.63
2023-06-28T04:01:35.266Z,17.65
2023-06-28T04:04:03.650Z,17.64
2023-06-28T04:06:32.010Z,17.69
2023-06-28T04:09:00.263Z,17.75
2023-06-28T04:11:28.894Z,17.73
2023-06-28T04:13:58.389Z,17.76
2023-06-28T04:16:26.660Z,17.78
2023-06-28T04:18:54.958Z,17.77
2023-06-28T04:21:23.053Z,17.76
2023-06-28T04:23:51.277Z,17.78
2023-06-28T04:26:20.734Z,17.73
2023-06-28T04:28:48.909Z,17.78
2023-06-28T04:31:18.657Z,17.78
2023-06-28T04:33:47.344Z,17.74
2023-06-28T04:36:15.546Z,17.77
2023-06-28T04:38:43.717Z,17.74
2023-06-28T04:41:11.971Z,17.82
2023-06-28T04:43:41.945Z,17.84
2023-06-28T04:46:13.346Z,17.84
2023-06-28T04:48:45.056Z,17.83
2023-06-28T04:51:13.738Z,17.74
2023-06-28T04:53:42.020Z,17.93
2023-06-28T04:56:11.011Z,18.02
2023-06-28T04:58:39.861Z,17.93
2023-06-28T05:01:09.439Z,17.94
2023-06-28T05:03:40.183Z,17.99
2023-06-28T05:06:11.450Z,18.05
2023-06-28T05:08:39.754Z,18.18
2023-06-28T05:11:09.043Z,18.26
2023-06-28T05:13:37.545Z,18.06
2023-06-28T05:16:06.066Z,18.10
2023-06-28T05:18:34.274Z,18.16
2023-06-28T05:21:02.527Z,18.11
2023-06-28T05:23:32.147Z,18.17
2023-06-28T05:26:00.301Z,18.15
2023-06-28T05:28:28.514Z,18.16
2023-06-28T05:30:56.864Z,18.11
2023-06-28T05:33:24.907Z,18.14
2023-06-28T05:35:53.272Z,18.18
2023-06-28T05:38:21.503Z,18.27
2023-06-28T05:40:56.344Z,18.32
2023-06-28T05:43:24.706Z,18.34
2023-06-28T05:45:53.982Z,18.46
2023-06-28T05:48:22.347Z,18.36
2023-06-28T05:50:51.192Z,18.41
2023-06-28T05:53:19.859Z,18.46
2023-06-28T05:55:48.033Z,18.56
2023-06-28T05:58:17.979Z,18.44
2023-06-28T06:00:46.522Z,18.42
2023-06-28T06:03:15.130Z,18.45
2023-06-28T06:05:43.595Z,18.38
2023-06-28T06:08:11.909Z,18.44
2023-06-28T06:10:40.585Z,18.40
2023-06-28T06:13:09.001Z,18.39
2023-06-28T06:15:38.679Z,18.31
2023-06-28T06:18:07.256Z,18.32
2023-06-28T06:20:38.190Z,18.21
2023-06-28T06:23:06.460Z,18.23
2023-06-28T06:25:34.741Z,18.22
2023-06-28T06:28:03.145Z,18.24
2023-06-28T06:30:31.616Z,18.19
2023-06-28T06:33:01.559Z,18.17
2023-06-28T06:35:29.904Z,18.17
2023-06-28T06:37:58.150Z,18.14
2023-06-28T06:40:26.303Z,18.14
2023-06-28T06:42:54.613Z,18.10
2023-06-28T06:45:22.912Z,18.11
2023-06-28T06:47:51.996Z,18.02
2023-06-28T06:50:21.828Z,18.00
2023-06-28T06:52:51.428Z,17.95
2023-06-28T06:55:19.793Z,17.86
2023-06-28T06:57:48.006Z,17.80
2023-06-28T07:00:17.782Z,17.75
2023-06-28T07:02:46.155Z,17.74
2023-06-28T07:05:16.053Z,17.72
2023-06-28T07:07:45.731Z,17.69
2023-06-28T07:10:14.142Z,17.68
2023-06-28T07:12:43.117Z,17.67
2023-06-28T07:15:12.432Z,17.82
2023-06-28T07:17:40.713Z,17.70
2023-06-28T07:20:10.473Z,17.76
2023-06-28T07:22:38.813Z,17.68
2023-06-28T07:25:09.933Z,17.69
2023-06-28T07:27:38.424Z,17.72
2023-06-28T07:30:10.204Z,17.68
2023-06-28T07:32:38.553Z,17.63
2023-06-28T07:35:07.911Z,17.62
2023-06-28T07:37:36.505Z,17.49
2023-06-28T07:40:09.378Z,17.57
2023-06-28T07:42:38.416Z,17.55
2023-06-28T07:45:07.334Z,17.55
2023-06-28T07:47:35.613Z,17.62
2023-06-28T07:50:04.914Z,17.59
2023-06-28T07:52:33.374Z,17.63
2023-06-28T07:55:03.991Z,17.68
2023-06-28T07:57:33.704Z,17.78
2023-06-28T08:00:01.775Z,17.75
2023-06-28T08:02:30.224Z,17.69
2023-06-28T08:04:59.893Z,17.81
2023-06-28T08:07:28.107Z,18.05
2023-06-28T08:09:56.358Z,18.22
2023-06-28T08:12:24.562Z,18.63
2023-06-28T08:14:54.342Z,19.25
2023-06-28T08:17:22.822Z,19.79
2023-06-28T08:19:51.137Z,20.50
2023-06-28T08:22:19.626Z,20.33
2023-06-28T08:24:47.772Z,20.78
2023-06-28T08:27:16.107Z,21.15
2023-06-28T08:29:44.252Z,21.65
2023-06-28T08:32:13.769Z,22.02
2023-06-28T08:34:41.949Z,22.20
2023-06-28T08:37:10.345Z,22.42
2023-06-28T08:39:38.842Z,22.44
2023-06-28T08:42:07.938Z,22.40
2023-06-28T08:44:39.345Z,22.26
2023-06-28T08:47:09.290Z,22.22
2023-06-28T08:49:39.241Z,21.59
2023-06-28T08:52:08.596Z,21.23
2023-06-28T08:54:37.187Z,21.01
2023-06-28T08:57:12.328Z,21.14
2023-06-28T08:59:42.221Z,21.17
2023-06-28T09:02:11.588Z,21.01
2023-06-28T09:04:41.331Z,20.82
2023-06-28T09:07:10.409Z,21.02
2023-06-28T09:09:42.558Z,21.12
2023-06-28T09:12:12.158Z,21.68
2023-06-28T09:14:41.267Z,22.03
2023-06-28T09:17:09.463Z,22.18
2023-06-28T09:19:38.082Z,22.06
2023-06-28T09:22:10.173Z,21.76
2023-06-28T09:24:39.191Z,21.45
2023-06-28T09:27:09.042Z,21.47
2023-06-28T09:29:37.384Z,21.36
2023-06-28T09:32:06.709Z,21.33
2023-06-28T09:34:36.212Z,21.10
2023-06-28T09:37:08.299Z,21.03
2023-06-28T09:39:41.847Z,20.79
2023-06-28T09:42:10.314Z,20.85
2023-06-28T09:44:38.500Z,20.74
2023-06-28T09:47:07.601Z,20.62
2023-06-28T09:49:43.060Z,20.49
2023-06-28T09:52:12.543Z,20.53
2023-06-28T09:54:46.449Z,20.50
2023-06-28T09:57:15.492Z,20.33
2023-06-28T09:59:45.815Z,20.11
2023-06-28T10:02:15.201Z,20.17
2023-06-28T10:04:43.990Z,20.24
2023-06-28T10:07:15.727Z,20.32
2023-06-28T10:09:44.358Z,20.46
2023-06-28T10:12:15.019Z,20.53
2023-06-28T10:14:47.087Z,20.51
2023-06-28T10:17:15.726Z,20.58
2023-06-28T10:19:45.295Z,20.75
2023-06-28T10:22:16.503Z,20.93
2023-06-28T10:24:45.617Z,20.85
2023-06-28T10:27:15.307Z,20.98
2023-06-28T10:29:44.341Z,21.02
2023-06-28T10:32:13.483Z,20.99
2023-06-28T10:34:43.048Z,21.16
2023-06-28T10:37:11.496Z,21.25
2023-06-28T10:39:41.216Z,21.47
2023-06-28T10:42:09.860Z,21.51
2023-06-28T10:44:52.560Z,21.72
2023-06-28T10:47:21.191Z,21.61
2023-06-28T10:50:07.195Z,21.79
2023-06-28T10:52:36.201Z,22.17
2023-06-28T10:55:13.206Z,22.22
2023-06-28T10:57:42.193Z,22.03
2023-06-28T11:00:31.750Z,21.65
2023-06-28T11:03:05.550Z,21.58
2023-06-28T11:05:41.902Z,21.86
2023-06-28T11:08:11.628Z,22.17
2023-06-28T11:10:43.160Z,22.65
2023-06-28T11:13:11.649Z,23.03
2023-06-28T11:15:45.502Z,23.20
2023-06-28T11:18:19.693Z,23.32
2023-06-28T11:20:55.646Z,22.92
2023-06-28T11:23:38.672Z,22.82
2023-06-28T11:26:12.175Z,22.97
2023-06-28T11:28:49.770Z,23.15
2023-06-28T11:31:22.720Z,22.84
2023-06-28T11:33:52.334Z,23.17
2023-06-28T11:36:20.896Z,23.45
2023-06-28T11:38:49.097Z,23.77
2023-06-28T11:41:19.968Z,24.20
2023-06-28T11:43:49.444Z,24.43
2023-06-28T11:46:19.721Z,24.54
2023-06-28T11:48:49.116Z,24.22
2023-06-28T11:51:17.589Z,24.21
2023-06-28T11:53:50.155Z,23.80
2023-06-28T11:56:20.181Z,23.15
2023-06-28T11:58:48.476Z,23.47
2023-06-28T12:01:26.243Z,23.76
2023-06-28T12:03:54.622Z,23.93
2023-06-28T12:06:22.954Z,24.08
2023-06-28T12:08:51.123Z,24.09
2023-06-28T12:11:20.684Z,24.10
2023-06-28T12:13:48.964Z,24.32
2023-06-28T12:16:18.354Z,24.40
2023-06-28T12:19:00.372Z,24.44
2023-06-28T12:21:30.074Z,24.61
2023-06-28T12:24:13.876Z,24.41
2023-06-28T12:26:45.443Z,24.31
2023-06-28T12:29:13.993Z,24.59
2023-06-28T12:31:48.400Z,24.63
2023-06-28T12:34:22.767Z,24.58
2023-06-28T12:36:52.919Z,24.69
2023-06-28T12:39:23.680Z,24.77
2023-06-28T12:42:05.346Z,24.76
2023-06-28T12:44:49.492Z,25.06
2023-06-28T12:47:18.070Z,24.98
2023-06-28T12:49:46.852Z,24.92
2023-06-28T12:52:15.440Z,24.84
2023-06-28T12:54:43.848Z,24.70
2023-06-28T12:57:13.791Z,25.07
2023-06-28T12:59:42.759Z,25.24
2023-06-28T13:02:11.240Z,25.37
2023-06-28T13:04:40.020Z,25.26
2023-06-28T13:07:09.571Z,25.26
2023-06-28T13:09:37.943Z,25.26
2023-06-28T13:12:08.367Z,25.14
2023-06-28T13:14:38.163Z,25.31
2023-06-28T13:17:07.525Z,25.27
2023-06-28T13:19:36.083Z,25.13
2023-06-28T13:22:04.500Z,24.93
2023-06-28T13:24:32.646Z,24.91
2023-06-28T13:27:00.722Z,25.08
2023-06-28T13:29:29.213Z,24.97
2023-06-28T13:31:59.268Z,25.13
2023-06-28T13:34:27.785Z,25.26
2023-06-28T13:36:55.994Z,25.13
2023-06-28T13:39:24.329Z,25.22
2023-06-28T13:41:52.508Z,24.85
2023-06-28T13:44:20.869Z,24.64
2023-06-28T13:46:49.155Z,24.80
2023-06-28T13:49:19.402Z,24.64
2023-06-28T13:51:47.566Z,24.35
2023-06-28T13:54:15.950Z,24.32
2023-06-28T13:56:44.989Z,24.29
2023-06-28T13:59:13.250Z,24.16
2023-06-28T14:01:41.467Z,24.13
2023-06-28T14:04:11.260Z,24.08
2023-06-28T14:06:40.983Z,24.07
2023-06-28T14:09:09.323Z,24.25
2023-06-28T14:11:37.599Z,24.09
2023-06-28T14:14:05.919Z,23.83
2023-06-28T14:16:34.210Z,23.97
2023-06-28T14:19:02.449Z,24.04
2023-06-28T14:21:30.861Z,23.94
2023-06-28T14:24:00.561Z,23.81
2023-06-28T14:26:28.823Z,24.06
2023-06-28T14:28:58.621Z,24.15
2023-06-28T14:31:27.236Z,24.07
2023-06-28T14:33:55.602Z,23.97
2023-06-28T14:36:24.501Z,23.96
2023-06-28T14:38:53.099Z,24.03
2023-06-28T14:41:22.812Z,24.20
2023-06-28T14:43:51.013Z,24.21
2023-06-28T14:46:19.280Z,24.27
2023-06-28T14:48:47.997Z,24.16
2023-06-28T14:51:16.353Z,24.19
2023-06-28T14:53:44.853Z,24.13
2023-06-28T14:56:13.243Z,24.31
2023-06-28T14:58:43.073Z,24.28
2023-06-28T15:01:11.413Z,24.15
2023-06-28T15:03:39.951Z,24.09
2023-06-28T15:06:12.321Z,24.12
2023-06-28T15:08:40.933Z,24.15
2023-06-28T15:11:11.748Z,24.32
2023-06-28T15:13:40.003Z,24.16
2023-06-28T15:16:09.943Z,24.00
2023-06-28T15:18:38.193Z,23.73
2023-06-28T15:21:06.471Z,23.48
2023-06-28T15:23:35.078Z,23.30
2023-06-28T15:26:03.894Z,23.13
2023-06-28T15:28:32.349Z,22.94
2023-06-28T15:31:00.674Z,22.51
2023-06-28T15:33:30.620Z,22.27
2023-06-28T15:35:58.962Z,22.01
2023-06-28T15:38:28.904Z,21.99
2023-06-28T15:40:57.364Z,21.89
2023-06-28T15:43:26.172Z,21.61
2023-06-28T15:45:54.580Z,21.54
2023-06-28T15:48:23.135Z,21.60
2023-06-28T15:50:53.497Z,21.57
2023-06-28T15:53:22.081Z,21.63
2023-06-28T15:55:50.474Z,21.67
2023-06-28T15:58:18.655Z,21.76
2023-06-28T16:00:49.715Z,21.68
2023-06-28T16:03:18.170Z,21.69
2023-06-28T16:05:46.800Z,21.63
2023-06-28T16:08:16.524Z,21.64
2023-06-28T16:10:44.923Z,21.67
2023-06-28T16:13:15.728Z,21.67
2023-06-28T16:15:44.318Z,21.71
2023-06-28T16:18:12.841Z,21.74
2023-06-28T16:20:41.331Z,21.70
2023-06-28T16:23:09.813Z,21.68
2023-06-28T16:25:39.427Z,21.69
2023-06-28T16:28:07.597Z,21.72
2023-06-28T16:30:35.901Z,21.75
2023-06-28T16:33:09.891Z,21.67
2023-06-28T16:35:38.159Z,21.66
2023-06-28T16:38:06.627Z,21.63
2023-06-28T16:40:34.855Z,21.64
2023-06-28T16:43:05.775Z,21.53
2023-06-28T16:45:34.581Z,21.51
2023-06-28T16:48:03.154Z,21.53
2023-06-28T16:50:31.497Z,21.64
2023-06-28T16:52:59.685Z,21.60
2023-06-28T16:55:29.408Z,21.63
2023-06-28T16:57:57.632Z,21.68
2023-06-28T17:00:27.398Z,21.80
2023-06-28T17:02:55.949Z,21.91
2023-06-28T17:05:24.291Z,21.90
2023-06-28T17:07:52.601Z,21.84
2023-06-28T17:10:20.999Z,21.83
2023-06-28T17:12:49.262Z,21.75
2023-06-28T17:15:17.647Z,21.77
2023-06-28T17:17:48.613Z,21.75
2023-06-28T17:20:18.564Z,21.66
2023-06-28T17:22:47.125Z,21.63
2023-06-28T17:25:16.826Z,21.58
2023-06-28T17:27:45.986Z,21.42
2023-06-28T17:30:14.992Z,21.35
2023-06-28T17:32:44.697Z,21.36
2023-06-28T17:35:17.539Z,21.27
2023-06-28T17:37:47.601Z,21.23
2023-06-28T17:40:18.505Z,21.27
2023-06-28T17:42:47.665Z,21.17
2023-06-28T17:45:17.235Z,21.06
2023-06-28T17:47:48.370Z,20.99
2023-06-28T17:50:21.485Z,20.89
2023-06-28T17:52:51.289Z,20.84
2023-06-28T17:55:22.013Z,20.72
2023-06-28T17:57:52.211Z,20.58
2023-06-28T18:00:22.728Z,20.47
2023-06-28T18:02:53.937Z,20.40
2023-06-28T18:05:28.632Z,20.31
2023-06-28T18:08:01.430Z,20.32
2023-06-28T18:10:31.639Z,20.32
2023-06-28T18:13:02.779Z,20.20
2023-06-28T18:15:33.742Z,20.13
2023-06-28T18:18:04.707Z,19.99
2023-06-28T18:20:37.092Z,19.93
2023-06-28T18:23:07.255Z,19.90
2023-06-28T18:25:37.753Z,19.82
2023-06-28T18:28:08.341Z,19.72
2023-06-28T18:30:39.757Z,19.55
2023-06-28T18:33:09.113Z,19.43
2023-06-28T18:35:41.650Z,19.38
2023-06-28T18:38:13.360Z,19.28
2023-06-28T18:40:44.288Z,19.16
2023-06-28T18:43:15.794Z,19.11
2023-06-28T18:45:50.181Z,19.08
2023-06-28T18:48:22.078Z,18.99
2023-06-28T18:50:55.042Z,18.89
2023-06-28T18:53:25.191Z,18.79
2023-06-28T18:55:55.979Z,18.62
2023-06-28T18:58:31.720Z,18.53
2023-06-28T19:01:03.501Z,18.46
2023-06-28T19:03:34.641Z,18.34
2023-06-28T19:06:07.223Z,18.20
2023-06-28T19:08:38.244Z,18.18
2023-06-28T19:11:09.788Z,18.03
2023-06-28T19:13:41.650Z,17.93
2023-06-28T19:16:14.379Z,17.77
2023-06-28T19:18:45.148Z,17.72
2023-06-28T19:21:20.182Z,17.65
2023-06-28T19:23:51.436Z,17.58
2023-06-28T19:26:20.961Z,17.55
2023-06-28T19:28:49.823Z,17.51
2023-06-28T19:31:18.192Z,17.51
2023-06-28T19:33:46.789Z,17.43
2023-06-28T19:36:16.412Z,17.38
2023-06-28T19:38:44.922Z,17.34
2023-06-28T19:41:13.196Z,17.38
2023-06-28T19:43:41.566Z,17.29
2023-06-28T19:46:10.136Z,17.26
2023-06-28T19:48:39.805Z,17.23
2023-06-28T19:51:08.520Z,17.23
2023-06-28T19:53:38.546Z,17.15
2023-06-28T19:56:07.116Z,17.14
2023-06-28T19:58:36.223Z,17.16
2023-06-28T20:01:06.242Z,17.21
2023-06-28T20:03:37.350Z,17.18
2023-06-28T20:06:06.067Z,17.18
2023-06-28T20:08:34.594Z,17.04
2023-06-28T20:11:04.239Z,17.03
2023-06-28T20:13:32.758Z,17.08
2023-06-28T20:16:04.154Z,17.03
2023-06-28T20:18:32.809Z,16.95
2023-06-28T20:21:01.281Z,16.93
2023-06-28T20:23:30.563Z,16.90
2023-06-28T20:25:58.943Z,16.90
2023-06-28T20:28:28.593Z,16.81
2023-06-28T20:30:57.635Z,16.86
2023-06-28T20:33:25.854Z,16.86
2023-06-28T20:35:54.422Z,16.80
2023-06-28T20:38:22.687Z,16.86
2023-06-28T20:40:51.189Z,16.91
2023-06-28T20:43:19.767Z,16.90
2023-06-28T20:45:49.663Z,16.88
2023-06-28T20:48:18.754Z,16.79
2023-06-28T20:50:47.356Z,16.72
2023-06-28T20:53:15.612Z,16.59
2023-06-28T20:55:44.040Z,16.52
2023-06-28T20:58:12.427Z,16.51
2023-06-28T21:00:40.617Z,16.41
2023-06-28T21:03:10.435Z,16.43
2023-06-28T21:05:39.269Z,16.39
2023-06-28T21:08:07.375Z,16.44
2023-06-28T21:10:36.381Z,16.47
2023-06-28T21:13:04.741Z,16.50
2023-06-28T21:15:32.925Z,16.51
2023-06-28T21:18:01.431Z,16.52
2023-06-28T21:20:30.984Z,16.52
2023-06-28T21:22:59.245Z,16.58
2023-06-28T21:25:27.937Z,16.62
2023-06-28T21:27:56.218Z,16.65
2023-06-28T21:30:24.627Z,16.68
2023-06-28T21:32:52.901Z,16.72
2023-06-28T21:35:21.760Z,16.69
2023-06-28T21:37:51.303Z,16.66
2023-06-28T21:40:19.591Z,16.63
2023-06-28T21:42:47.894Z,16.61
2023-06-28T21:45:16.917Z,16.61
2023-06-28T21:47:45.180Z,16.60
2023-06-28T21:50:13.465Z,16.58
2023-06-28T21:52:41.866Z,16.53
2023-06-28T21:55:11.667Z,16.51
2023-06-28T21:57:39.826Z,16.47
2023-06-28T22:00:22.039Z,16.46
2023-06-28T22:02:50.654Z,16.48
2023-06-28T22:05:19.302Z,16.50
2023-06-28T22:07:50.220Z,16.50
2023-06-28T22:10:20.320Z,16.47
2023-06-28T22:12:49.117Z,16.45
2023-06-28T22:15:18.286Z,16.43
2023-06-28T22:17:47.602Z,16.41
2023-06-28T22:20:16.742Z,16.35
2023-06-28T22:22:44.860Z,16.29
2023-06-28T22:25:13.139Z,16.22
2023-06-28T22:27:42.740Z,16.16
2023-06-28T22:30:12.577Z,16.10
2023-06-28T22:32:46.797Z,16.09
2023-06-28T22:35:15.554Z,16.09
2023-06-28T22:37:43.851Z,16.11
2023-06-28T22:40:12.102Z,16.09
2023-06-28T22:42:42.297Z,16.08
2023-06-28T22:45:12.634Z,16.06
2023-06-28T22:47:40.929Z,16.09
2023-06-28T22:50:10.017Z,16.15
2023-06-28T22:52:42.608Z,16.09
2023-06-28T22:55:11.812Z,16.09
2023-06-28T22:57:40.149Z,16.09
2023-06-28T23:00:10.282Z,16.10
2023-06-28T23:02:40.232Z,16.08
2023-06-28T23:05:09.353Z,16.04
2023-06-28T23:07:39.352Z,16.02
2023-06-28T23:10:08.807Z,15.97
2023-06-28T23:12:38.094Z,15.92
2023-06-28T23:15:07.350Z,15.88
2023-06-28T23:17:35.635Z,15.83
2023-06-28T23:20:06.124Z,15.80
2023-06-28T23:22:35.125Z,15.73
2023-06-28T23:25:03.424Z,15.74
2023-06-28T23:27:34.729Z,15.70
2023-06-28T23:30:02.912Z,15.67
2023-06-28T23:32:31.164Z,15.67
2023-06-28T23:34:59.625Z,15.64
2023-06-28T23:37:29.144Z,15.65
2023-06-28T23:42:42.965Z,15.69
2023-06-28T23:45:11.869Z,15.73
2023-06-28T23:47:40.550Z,15.76
2023-06-28T23:50:10.020Z,15.77
2023-06-28T23:52:40.327Z,15.76
2023-06-28T23:55:09.743Z,15.77
2023-06-28T23:57:38.106Z,15.78
